Macallan 15 — 9WRZ5 — position and weather

sailwx.info

Track history (hours):
 
Tides and Currents Weather Stations Pressure Air Temp Water Temp Dewpoint Dewpoint Depression Visibility Wind Speed Wind Dir Waves Ship Positions

Macallan 15

Last reported at 2018-Aug-02 14:46 UTC. Time now 2018-Aug-20 16:18 UTC.
Position N 01°24' E 104°28'.
Warning: this ship's position is 18 days out of date.

Length 30 m; draft 4.5 m.

Type: Tug. MMSI: 533170388.

Date/timePositionNaut miles runAvg speedWind from/ knotsBaromVisibWave heightAir tempDewpointWater temp
2018-Aug-02 14:46N 01°24' E 104°28'1 3.7
2018-Aug-02 14:27N 01°24' E 104°26'3 3.9
2018-Aug-02 13:45N 01°24' E 104°24'1 4.2
2018-Aug-02 13:28N 01°24' E 104°23'2 3.4
2018-Aug-02 12:55N 01°26' E 104°21'0 0.1
2018-Aug-02 11:58N 01°26' E 104°21'5 8.4
2018-Aug-02 11:23N 01°21' E 104°19'4 8.8
2018-Aug-02 10:58N 01°20' E 104°16'4 8.8
2018-Aug-02 10:30N 01°19' E 104°12'5 8.7
2018-Aug-02 09:59N 01°20' E 104°07'4 7.6
2018-Aug-02 09:28N 01°23' E 104°05'2 0.5
2018-Aug-02 04:58N 01°25' E 104°07'1 1.2
2018-Aug-02 04:09N 01°24' E 104°06'0 0.2
2018-Aug-02 03:49N 01°24' E 104°06'0 0.1
2018-Aug-01 23:25N 01°24' E 104°06'0 0.0
2018-Aug-01 22:55N 01°24' E 104°06'1 1.8
2018-Aug-01 22:29N 01°23' E 104°05'2 5.0
2018-Aug-01 21:59N 01°21' E 104°06'3 6.6
2018-Aug-01 21:30N 01°19' E 104°09'3 6.0
2018-Aug-01 20:59N 01°19' E 104°12'3 5.8
2018-Aug-01 20:30N 01°19' E 104°15'3 5.8
2018-Aug-01 20:00N 01°20' E 104°17'3 5.8
2018-Aug-01 19:27N 01°22' E 104°20'4 6.0
2018-Aug-01 18:51N 01°26' E 104°21'9 3.4
2018-Aug-01 16:16N 01°34' E 104°21'2 5.2
2018-Aug-01 15:57N 01°36' E 104°21'2 5.0
2018-Aug-01 15:27N 01°38' E 104°21'  
Track history (hours):
 
Tides and Currents Weather Stations Pressure Air Temp Water Temp Dewpoint Dewpoint Depression Visibility Wind Speed Wind Dir Waves Ship Positions

Macallan 15

Last reported at 2018-Aug-02 14:46 UTC. Time now 2018-Aug-20 16:18 UTC.
Position N 01°24' E 104°28'.
Warning: this ship's position is 18 days out of date.

Length 30 m; draft 4.5 m.

Type: Tug. MMSI: 533170388.

Date/timePositionNaut miles runAvg speedWind from/ knotsBaromVisibWave heightAir tempDewpointWater temp
2018-Aug-02 14:46N 01°24' E 104°28'1 3.7
2018-Aug-02 14:27N 01°24' E 104°26'3 3.9
2018-Aug-02 13:45N 01°24' E 104°24'1 4.2
2018-Aug-02 13:28N 01°24' E 104°23'2 3.4
2018-Aug-02 12:55N 01°26' E 104°21'0 0.1
2018-Aug-02 11:58N 01°26' E 104°21'5 8.4
2018-Aug-02 11:23N 01°21' E 104°19'4 8.8
2018-Aug-02 10:58N 01°20' E 104°16'4 8.8
2018-Aug-02 10:30N 01°19' E 104°12'5 8.7
2018-Aug-02 09:59N 01°20' E 104°07'4 7.6
2018-Aug-02 09:28N 01°23' E 104°05'2 0.5
2018-Aug-02 04:58N 01°25' E 104°07'1 1.2
2018-Aug-02 04:09N 01°24' E 104°06'0 0.2
2018-Aug-02 03:49N 01°24' E 104°06'0 0.1
2018-Aug-01 23:25N 01°24' E 104°06'0 0.0
2018-Aug-01 22:55N 01°24' E 104°06'1 1.8
2018-Aug-01 22:29N 01°23' E 104°05'2 5.0
2018-Aug-01 21:59N 01°21' E 104°06'3 6.6
2018-Aug-01 21:30N 01°19' E 104°09'3 6.0
2018-Aug-01 20:59N 01°19' E 104°12'3 5.8
2018-Aug-01 20:30N 01°19' E 104°15'3 5.8
2018-Aug-01 20:00N 01°20' E 104°17'3 5.8
2018-Aug-01 19:27N 01°22' E 104°20'4 6.0
2018-Aug-01 18:51N 01°26' E 104°21'9 3.4
2018-Aug-01 16:16N 01°34' E 104°21'2 5.2
2018-Aug-01 15:57N 01°36' E 104°21'2 5.0
2018-Aug-01 15:27N 01°38' E 104°21'  

Dump ship's entire track history